Flight Track Log - Related Links

Times and Time Zones

All times are in EST time to prevent confusion due to time zone crossing. See the BJS339 flight status page for this flight to view local times or setup timezone preferences in your user account.

Time Position Orientation Groundspeed Altitude Reporting Facility
EST Latitude Longitude Course Direction KTS MPH feet Rate Location/Type
Wed 05:30:53 PM 28.0000 -82.5333 360° North 202 232 1,400  Level Tampa TRACON
Wed 05:31:41 PM 28.0500 -82.5333 360° North 250 288 4,200 3,277 Climbing Tampa TRACON
Wed 05:35:13 PM 28.3539 -82.5600 356° North 336 387 15,600 3,044 Climbing Jacksonville Center
Wed 05:36:13 PM 28.4542 -82.5692 355° North 368 423 18,000 2,200 Climbing Jacksonville Center
Wed 05:37:13 PM 28.5628 -82.5781 356° North 398 458 20,000 2,100 Climbing Jacksonville Center
Wed 05:38:13 PM 28.6756 -82.5897 355° North 413 475 22,200 2,050 Climbing Jacksonville Center
Wed 05:39:13 PM 28.7694 -82.6036 353° North 405 466 24,100 1,850 Climbing Jacksonville Center
Wed 05:40:13 PM 28.8822 -82.6175 354° North 405 466 25,900 950 Climbing Jacksonville Center
Wed 05:41:13 PM 29.0011 -82.6361 352° North 412 474 26,000 350 Climbing Jacksonville Center
Wed 05:42:13 PM 29.1286 -82.6525 354° North 441 507 26,600 950 Climbing Jacksonville Center
Wed 05:43:13 PM 29.2558 -82.6689 354° North 446 513 27,900 1,300 Climbing Jacksonville Center
Wed 05:44:13 PM 29.3811 -82.6875 353° North 451 519 29,200 1,700 Climbing Jacksonville Center
Wed 05:45:13 PM 29.5211 -82.6922 358° North 457 526 31,300 1,800 Climbing Jacksonville Center
Wed 05:46:13 PM 29.6506 -82.6919 360° North 455 524 32,800 1,200 Climbing Jacksonville Center
Wed 05:47:13 PM 29.7778 -82.6581 13° North 467 537 33,700 850 Climbing Jacksonville Center
Wed 05:48:13 PM 29.8883 -82.6050 23° Northeast 472 543 34,500 900 Climbing Jacksonville Center
Wed 05:49:13 PM 30.0281 -82.5519 18° North 481 554 35,500 950 Climbing Jacksonville Center
Wed 05:50:13 PM 30.1531 -82.4961 21° North 481 554 36,400 900 Climbing Jacksonville Center
Wed 05:51:13 PM 30.2803 -82.4428 20° North 481 554 37,300 850 Climbing Jacksonville Center
Wed 05:52:13 PM 30.4053 -82.3892 20° North 481 554 38,100 850 Climbing Jacksonville Center
Wed 05:53:13 PM 30.5283 -82.3378 20° North 475 547 39,000 750 Climbing Jacksonville Center
Wed 05:54:13 PM 30.6533 -82.2864 19° North 475 547 39,600 600 Climbing Jacksonville Center
Wed 05:55:13 PM 30.7783 -82.2350 19° North 475 547 40,200 550 Climbing Jacksonville Center
Wed 05:56:13 PM 30.9014 -82.1808 21° North 465 535 40,700 400 Climbing Jacksonville Center
Wed 05:57:13 PM 31.0264 -82.1264 20° North 471 542 41,000 150 Climbing Jacksonville Center
Wed 05:58:13 PM 31.1514 -82.0744 20° North 471 542 41,000  Level Jacksonville Center
Wed 05:59:13 PM 31.2803 -82.0222 19° North 471 542 41,000  Level Jacksonville Center
Wed 06:00:13 PM 31.4072 -81.9653 21° North 477 549 41,000  Level Jacksonville Center
Wed 06:01:13 PM 31.5364 -81.9078 21° North 492 566 41,000  Level Jacksonville Center
Wed 06:02:13 PM 31.6550 -81.8578 20° North 492 566 41,000  Level Jacksonville Center
Wed 06:03:13 PM 31.7986 -81.7950 20° North 492 566 41,000  Level Jacksonville Center
Wed 06:04:13 PM 31.9317 -81.7394 20° North 498 573 41,000  Level Jacksonville Center
Wed 06:05:13 PM 32.0503 -81.6867 21° North 504 580 41,000  Level Jacksonville Center
Wed 06:06:13 PM 32.1978 -81.6233 20° North 504 580 41,000  Level Jacksonville Center
Wed 06:07:13 PM 32.3286 -81.5650 21° North 511 588 41,000  Level Jacksonville Center
Wed 06:08:13 PM 32.4492 -81.4992 25° Northeast 506 582 41,000  Level Jacksonville Center
Wed 06:09:13 PM 32.5750 -81.3764 39° Northeast 527 606 41,000  Level Jacksonville Center
Wed 06:10:13 PM 32.6758 -81.2661 43° Northeast 539 620 41,000  Level Jacksonville Center
Wed 06:11:13 PM 32.7678 -81.1189 53° Northeast 539 620 41,000  Level Jacksonville Center
Wed 06:12:13 PM 32.8553 -80.9661 56° Northeast 549 632 41,000  Level Jacksonville Center
Wed 06:13:13 PM 32.9428 -80.8158 55° Northeast 554 638 41,000  Level Jacksonville Center
Wed 06:14:13 PM 33.0319 -80.6625 55° Northeast 559 643 41,000  Level Jacksonville Center
Wed 06:15:13 PM 33.1211 -80.5117 55° Northeast 559 643 41,000  Level Jacksonville Center
Wed 06:16:13 PM 33.2161 -80.3575 54° Northeast 565 650 41,000  Level Jacksonville Center
Wed 06:17:13 PM 33.3106 -80.1833 57° Northeast 570 656 41,000  Level Jacksonville Center
Wed 06:18:13 PM 33.3992 -80.0264 56° Northeast 565 650 41,000  Level Jacksonville Center
Wed 06:19:13 PM 33.4831 -79.8719 57° Northeast 565 650 41,000  Level Jacksonville Center
Wed 06:20:13 PM 33.5711 -79.7144 56° Northeast 565 650 41,000 -100 Level Jacksonville Center
Wed 06:21:13 PM 33.6608 -79.5589 55° Northeast 565 650 40,800 -550 Descending Jacksonville Center
Wed 06:22:13 PM 33.7344 -79.4214 57° Northeast 557 641 39,900 -950 Descending Jacksonville Center
Wed 06:23:13 PM 33.8278 -79.2550 56° Northeast 550 633 38,900 -450 Descending Jacksonville Center
Wed 06:24:13 PM 33.9131 -79.1014 56° Northeast 550 633 39,000 50 Climbing Jacksonville Center
Wed 06:25:13 PM 34.0064 -78.9519 53° Northeast 550 633 39,000  Level Jacksonville Center
Wed 06:27:38 PM 34.2822 -78.6758 40° Northeast 534 615 39,000  Level Washington Center
Wed 06:28:38 PM 34.4000 -78.5569 40° Northeast 544 626 39,000  Level Washington Center
Wed 06:29:36 PM 34.5156 -78.4403 40° Northeast 544 626 39,000  Level Washington Center
Wed 06:30:37 PM 34.6353 -78.3206 39° Northeast 549 632 39,000  Level Washington Center
Wed 06:31:37 PM 34.7528 -78.1981 41° Northeast 549 632 39,000  Level Washington Center
Wed 06:32:38 PM 34.8531 -78.0875 42° Northeast 543 625 39,000  Level Washington Center
Wed 06:33:37 PM 34.9725 -77.9694 39° Northeast 543 625 39,000  Level Washington Center
Wed 06:34:38 PM 35.0917 -77.8461 40° Northeast 548 631 39,000  Level Washington Center
Wed 06:35:38 PM 35.2108 -77.7225 40° Northeast 548 631 39,000  Level Washington Center
Wed 06:36:37 PM 35.3275 -77.6008 40° Northeast 548 631 39,000  Level Washington Center
Wed 06:37:37 PM 35.4483 -77.4864 38° Northeast 548 631 39,000  Level Washington Center
Wed 06:38:37 PM 35.5900 -77.3647 35° Northeast 553 636 39,000  Level Washington Center
Wed 06:39:38 PM 35.7147 -77.2575 35° Northeast 553 636 39,000  Level Washington Center
Wed 06:40:38 PM 35.8414 -77.1472 35° Northeast 553 636 39,000  Level Washington Center
Wed 06:41:37 PM 35.9489 -77.0494 36° Northeast 547 629 39,000  Level Washington Center
Wed 06:42:37 PM 36.0714 -76.9411 36° Northeast 547 629 39,000  Level Washington Center
Wed 06:43:37 PM 36.1933 -76.8325 36° Northeast 547 629 39,000  Level Washington Center
Wed 06:44:37 PM 36.3133 -76.7236 36° Northeast 547 629 39,000  Level Washington Center
Wed 06:45:38 PM 36.4375 -76.6144 35° Northeast 547 629 39,000  Level Washington Center
Wed 06:46:35 PM 36.5614 -76.5047 35° Northeast 547 629 39,000  Level Washington Center
Wed 06:47:37 PM 36.6853 -76.3922 36° Northeast 552 635 39,000  Level Washington Center
Wed 06:48:37 PM 36.8197 -76.2664 37° Northeast 552 635 39,000  Level Washington Center
Wed 06:49:37 PM 36.9433 -76.1689 32° Northeast 546 628 39,000  Level Washington Center
Wed 06:50:38 PM 37.0708 -76.1100 20° North 520 598 39,000  Level Washington Center
Wed 06:51:36 PM 37.2131 -76.0353 23° Northeast 514 592 39,000  Level Washington Center
Wed 06:52:37 PM 37.3444 -75.9656 23° Northeast 514 592 39,000  Level Washington Center
Wed 06:53:37 PM 37.4783 -75.8928 23° Northeast 514 592 39,000  Level Washington Center
Wed 06:54:36 PM 37.6097 -75.8067 27° Northeast 519 597 39,000  Level Washington Center
Wed 06:55:36 PM 37.7392 -75.7100 31° Northeast 530 610 39,000  Level Washington Center
Wed 06:56:37 PM 37.8708 -75.6103 31° Northeast 542 624 39,000  Level Washington Center
Wed 06:57:37 PM 37.9958 -75.5128 32° Northeast 537 618 39,000  Level Washington Center
Wed 06:58:38 PM 38.1272 -75.4228 28° Northeast 532 612 39,000  Level Washington Center
Wed 06:59:38 PM 38.2603 -75.3378 27° Northeast 526 605 39,000  Level Washington Center
Wed 07:00:38 PM 38.3936 -75.2553 26° Northeast 520 598 39,000  Level Washington Center
Wed 07:01:37 PM 38.5247 -75.1697 27° Northeast 520 598 39,000  Level Washington Center
Wed 07:02:38 PM 38.6558 -75.0814 28° Northeast 520 598 39,000 -151 Level Washington Center
Wed 07:03:36 PM 38.7889 -75.0003 25° Northeast 525 604 38,700 -706 Descending Washington Center
Wed 07:04:37 PM 38.9239 -74.9167 26° Northeast 531 611 37,600 -1,250 Descending Washington Center
Wed 07:05:36 PM 39.0525 -74.8325 27° Northeast 526 605 36,200 -1,636 Descending Washington Center
Wed 07:06:38 PM 39.1728 -74.7242 35° Northeast 526 605 34,300 -1,884 Descending Washington Center
Wed 07:07:37 PM 39.2883 -74.6019 39° Northeast 526 605 32,400 -2,595 Descending Washington Center
Wed 07:09:43 PM 39.5211 -74.3583 39° Northeast 538 619 26,300 -2,774 Descending New York Center
Wed 07:10:43 PM 39.6267 -74.2506 38° Northeast 517 595 23,800 -2,000 Descending New York Center
Wed 07:11:43 PM 39.7256 -74.1419 40° Northeast 481 554 22,300 -1,450 Descending New York Center
Wed 07:12:43 PM 39.8331 -74.0283 39° Northeast 459 528 20,900 -700 Descending New York Center
Wed 07:13:43 PM 39.9297 -73.9244 39° Northeast 453 521 20,900 -527 Level New York Center
Wed 07:15:45 PM 40.1072 -73.7353 39° Northeast 450 518 19,300 -885 Descending Boston Center
Wed 07:16:46 PM 40.2103 -73.6244 39° Northeast 433 498 18,200 -787 Descending Boston Center
Wed 07:17:47 PM 40.3031 -73.5261 39° Northeast 429 494 17,700 -595 Descending Boston Center
Wed 07:18:47 PM 40.3989 -73.4478 32° Northeast 414 476 17,000 -347 Descending Boston Center
Wed 07:19:48 PM 40.5050 -73.4097 15° North 394 453 17,000  Level Boston Center
Wed 07:20:48 PM 40.6106 -73.3714 15° North 392 451 17,000 -99 Level Boston Center
Wed 07:21:49 PM 40.7075 -73.3369 15° North 363 418 16,800 -1,056 Descending Boston Center
Wed 07:22:53 PM 40.8175 -73.2531 30° Northeast 395 455 14,800 -1,968 Descending Boston Center
Wed 07:23:54 PM 40.8792 -73.1297 56° Northeast 402 463 12,700 -1,983 Descending Boston Center
Wed 07:24:54 PM 40.9528 -73.0378 43° Northeast 379 436 10,800 -2,033 Descending Boston Center
Wed 07:25:55 PM 41.0253 -73.0558 349° North 301 346 8,600 -2,311 Descending Boston Center
Wed 07:26:56 PM 41.0536 -73.1275 298° West 246 283 6,100 -1,967 Descending Boston Center
Wed 07:27:57 PM 41.0789 -73.2014 294° West 227 261 4,600 -1,041 Descending Boston Center
Wed 07:28:57 PM 41.0872 -73.2842 278° West 236 272 4,000 -298 Descending Boston Center
Wed 07:29:58 PM 41.0694 -73.3656 254° West 233 268 4,000 -388 Level Boston Center
Wed 07:31:16 PM 41.0333 -73.4667 245° Southwest 231 266 3,100 -609 Descending New York TRACON
Wed 07:32:16 PM 41.0000 -73.5333 236° Southwest 194 223 2,600 -526 Descending New York TRACON
Wed 07:33:10 PM 40.9833 -73.6000 252° West 188 216 2,100 -350 Descending New York TRACON
Wed 07:34:16 PM 41.0000 -73.6500 294° West 177 204 1,900 -476 Descending New York TRACON
Wed 07:35:16 PM 41.0333 -73.6833 323° Northwest 129 148 1,100 -800 Descending New York TRACON

Login

Don't have an account? Register now (free) for customized features, flight alerts, and more!